sensor_id;sensor_type;location;lat;lon;timestamp;P1;durP1;ratioP1;P2;durP2;ratioP2
83495;SDS011;73431;40.794;43.836;2024-02-14T00:00:10;38.25;;;16.55;;
83495;SDS011;73431;40.794;43.836;2024-02-14T00:02:44;31.75;;;15.40;;
83495;SDS011;73431;40.794;43.836;2024-02-14T00:07:39;36.53;;;16.90;;
83495;SDS011;73431;40.794;43.836;2024-02-14T00:10:08;29.70;;;15.10;;
83495;SDS011;73431;40.794;43.836;2024-02-14T00:12:41;26.98;;;14.05;;
83495;SDS011;73431;40.794;43.836;2024-02-14T00:15:10;28.02;;;11.80;;
83495;SDS011;73431;40.794;43.836;2024-02-14T00:20:06;25.45;;;10.43;;
83495;SDS011;73431;40.794;43.836;2024-02-14T00:22:53;23.45;;;11.32;;
83495;SDS011;73431;40.794;43.836;2024-02-14T00:25:21;25.65;;;11.65;;
83495;SDS011;73431;40.794;43.836;2024-02-14T00:27:55;25.67;;;11.65;;
83495;SDS011;73431;40.794;43.836;2024-02-14T00:30:22;22.05;;;12.07;;
83495;SDS011;73431;40.794;43.836;2024-02-14T00:33:24;30.08;;;13.73;;
83495;SDS011;73431;40.794;43.836;2024-02-14T00:38:20;31.95;;;14.18;;
83495;SDS011;73431;40.794;43.836;2024-02-14T00:40:47;33.17;;;15.68;;
83495;SDS011;73431;40.794;43.836;2024-02-14T00:43:15;31.67;;;15.13;;
83495;SDS011;73431;40.794;43.836;2024-02-14T00:45:43;35.70;;;15.77;;
83495;SDS011;73431;40.794;43.836;2024-02-14T00:48:11;32.45;;;15.18;;
83495;SDS011;73431;40.794;43.836;2024-02-14T00:53:06;37.25;;;16.77;;
83495;SDS011;73431;40.794;43.836;2024-02-14T00:55:34;36.47;;;15.40;;
83495;SDS011;73431;40.794;43.836;2024-02-14T00:58:02;40.53;;;17.65;;
83495;SDS011;73431;40.794;43.836;2024-02-14T01:00:30;39.67;;;17.25;;
83495;SDS011;73431;40.794;43.836;2024-02-14T01:03:02;34.80;;;17.13;;
83495;SDS011;73431;40.794;43.836;2024-02-14T01:05:29;37.60;;;17.73;;
83495;SDS011;73431;40.794;43.836;2024-02-14T01:07:57;40.60;;;19.65;;
83495;SDS011;73431;40.794;43.836;2024-02-14T01:10:25;37.05;;;18.63;;
83495;SDS011;73431;40.794;43.836;2024-02-14T01:12:52;38.25;;;18.50;;
83495;SDS011;73431;40.794;43.836;2024-02-14T01:15:20;41.25;;;18.67;;
83495;SDS011;73431;40.794;43.836;2024-02-14T01:17:49;43.22;;;20.13;;
83495;SDS011;73431;40.794;43.836;2024-02-14T01:20:17;36.50;;;17.10;;
83495;SDS011;73431;40.794;43.836;2024-02-14T01:22:45;36.60;;;18.85;;
83495;SDS011;73431;40.794;43.836;2024-02-14T01:25:29;36.67;;;17.92;;
83495;SDS011;73431;40.794;43.836;2024-02-14T01:27:59;41.05;;;18.45;;
83495;SDS011;73431;40.794;43.836;2024-02-14T01:30:27;40.38;;;18.77;;
83495;SDS011;73431;40.794;43.836;2024-02-14T01:32:55;37.03;;;18.30;;
83495;SDS011;73431;40.794;43.836;2024-02-14T01:35:23;49.88;;;20.08;;
83495;SDS011;73431;40.794;43.836;2024-02-14T01:37:50;39.95;;;17.27;;
83495;SDS011;73431;40.794;43.836;2024-02-14T01:40:19;39.17;;;18.13;;
83495;SDS011;73431;40.794;43.836;2024-02-14T01:43:02;37.13;;;17.95;;
83495;SDS011;73431;40.794;43.836;2024-02-14T01:45:30;39.15;;;18.27;;
83495;SDS011;73431;40.794;43.836;2024-02-14T01:48:17;37.60;;;19.15;;
83495;SDS011;73431;40.794;43.836;2024-02-14T01:50:46;33.60;;;16.17;;
83495;SDS011;73431;40.794;43.836;2024-02-14T01:53:14;35.17;;;17.83;;
83495;SDS011;73431;40.794;43.836;2024-02-14T01:55:42;30.63;;;16.00;;
83495;SDS011;73431;40.794;43.836;2024-02-14T01:58:12;37.60;;;17.58;;
83495;SDS011;73431;40.794;43.836;2024-02-14T02:00:41;27.35;;;15.30;;
83495;SDS011;73431;40.794;43.836;2024-02-14T02:03:12;31.92;;;15.82;;
83495;SDS011;73431;40.794;43.836;2024-02-14T02:05:41;32.28;;;16.13;;
83495;SDS011;73431;40.794;43.836;2024-02-14T02:08:09;34.42;;;17.02;;
83495;SDS011;73431;40.794;43.836;2024-02-14T02:10:37;31.00;;;15.70;;
83495;SDS011;73431;40.794;43.836;2024-02-14T02:13:28;31.92;;;16.30;;
83495;SDS011;73431;40.794;43.836;2024-02-14T02:16:16;31.60;;;15.70;;
83495;SDS011;73431;40.794;43.836;2024-02-14T02:19:06;27.85;;;14.80;;
83495;SDS011;73431;40.794;43.836;2024-02-14T02:21:56;36.55;;;15.02;;
83495;SDS011;73431;40.794;43.836;2024-02-14T02:24:24;36.08;;;13.70;;
83495;SDS011;73431;40.794;43.836;2024-02-14T02:26:52;28.75;;;13.70;;
83495;SDS011;73431;40.794;43.836;2024-02-14T02:29:41;30.50;;;14.73;;
83495;SDS011;73431;40.794;43.836;2024-02-14T02:32:09;44.80;;;14.57;;
83495;SDS011;73431;40.794;43.836;2024-02-14T02:34:38;28.23;;;14.07;;
83495;SDS011;73431;40.794;43.836;2024-02-14T02:37:06;33.13;;;14.57;;
83495;SDS011;73431;40.794;43.836;2024-02-14T02:40:08;29.60;;;13.60;;
83495;SDS011;73431;40.794;43.836;2024-02-14T02:43:00;30.38;;;14.63;;
83495;SDS011;73431;40.794;43.836;2024-02-14T02:45:48;33.38;;;13.75;;
83495;SDS011;73431;40.794;43.836;2024-02-14T02:48:36;33.15;;;14.38;;
83495;SDS011;73431;40.794;43.836;2024-02-14T02:51:17;29.17;;;13.60;;
83495;SDS011;73431;40.794;43.836;2024-02-14T02:54:08;29.83;;;12.85;;
83495;SDS011;73431;40.794;43.836;2024-02-14T02:56:55;26.05;;;13.18;;
83495;SDS011;73431;40.794;43.836;2024-02-14T02:59:23;43.05;;;14.40;;
83495;SDS011;73431;40.794;43.836;2024-02-14T03:01:52;27.63;;;13.90;;
83495;SDS011;73431;40.794;43.836;2024-02-14T03:04:40;28.55;;;13.18;;
83495;SDS011;73431;40.794;43.836;2024-02-14T03:07:38;30.70;;;13.35;;
83495;SDS011;73431;40.794;43.836;2024-02-14T03:10:26;30.25;;;14.57;;
83495;SDS011;73431;40.794;43.836;2024-02-14T03:13:15;27.27;;;14.15;;
83495;SDS011;73431;40.794;43.836;2024-02-14T03:16:04;30.70;;;13.85;;
83495;SDS011;73431;40.794;43.836;2024-02-14T03:18:32;30.23;;;13.27;;
83495;SDS011;73431;40.794;43.836;2024-02-14T03:21:01;26.92;;;13.02;;
83495;SDS011;73431;40.794;43.836;2024-02-14T03:23:29;24.98;;;12.85;;
83495;SDS011;73431;40.794;43.836;2024-02-14T03:25:57;34.78;;;13.55;;
83495;SDS011;73431;40.794;43.836;2024-02-14T03:28:25;33.03;;;13.98;;
83495;SDS011;73431;40.794;43.836;2024-02-14T03:30:53;39.42;;;13.60;;
83495;SDS011;73431;40.794;43.836;2024-02-14T03:33:21;30.08;;;13.65;;
83495;SDS011;73431;40.794;43.836;2024-02-14T03:35:49;25.95;;;13.95;;
83495;SDS011;73431;40.794;43.836;2024-02-14T03:38:29;34.78;;;14.50;;
83495;SDS011;73431;40.794;43.836;2024-02-14T03:40:59;28.35;;;14.55;;
83495;SDS011;73431;40.794;43.836;2024-02-14T03:43:26;33.55;;;15.85;;
83495;SDS011;73431;40.794;43.836;2024-02-14T03:45:55;35.60;;;14.82;;
83495;SDS011;73431;40.794;43.836;2024-02-14T03:50:50;34.38;;;13.82;;
83495;SDS011;73431;40.794;43.836;2024-02-14T03:53:19;38.72;;;17.30;;
83495;SDS011;73431;40.794;43.836;2024-02-14T03:55:46;34.60;;;16.83;;
83495;SDS011;73431;40.794;43.836;2024-02-14T03:58:14;38.50;;;18.35;;
83495;SDS011;73431;40.794;43.836;2024-02-14T04:00:49;51.60;;;18.38;;
83495;SDS011;73431;40.794;43.836;2024-02-14T04:03:18;36.88;;;18.08;;
83495;SDS011;73431;40.794;43.836;2024-02-14T04:05:46;33.88;;;17.13;;
83495;SDS011;73431;40.794;43.836;2024-02-14T04:08:14;30.73;;;15.57;;
83495;SDS011;73431;40.794;43.836;2024-02-14T04:13:11;33.53;;;15.95;;
83495;SDS011;73431;40.794;43.836;2024-02-14T04:15:39;27.13;;;14.45;;
83495;SDS011;73431;40.794;43.836;2024-02-14T04:18:21;30.85;;;15.98;;
83495;SDS011;73431;40.794;43.836;2024-02-14T04:20:49;33.03;;;15.68;;
83495;SDS011;73431;40.794;43.836;2024-02-14T04:25:44;46.03;;;21.70;;
83495;SDS011;73431;40.794;43.836;2024-02-14T04:28:12;51.67;;;23.42;;
83495;SDS011;73431;40.794;43.836;2024-02-14T04:30:40;42.83;;;22.60;;
83495;SDS011;73431;40.794;43.836;2024-02-14T04:33:20;43.53;;;21.65;;
83495;SDS011;73431;40.794;43.836;2024-02-14T04:35:49;41.92;;;21.63;;
83495;SDS011;73431;40.794;43.836;2024-02-14T04:38:17;44.58;;;21.33;;
83495;SDS011;73431;40.794;43.836;2024-02-14T04:40:46;42.25;;;20.80;;
83495;SDS011;73431;40.794;43.836;2024-02-14T04:43:15;42.92;;;21.88;;
83495;SDS011;73431;40.794;43.836;2024-02-14T04:45:44;53.70;;;23.88;;
83495;SDS011;73431;40.794;43.836;2024-02-14T04:48:15;54.72;;;24.30;;
83495;SDS011;73431;40.794;43.836;2024-02-14T04:50:44;53.67;;;23.38;;
83495;SDS011;73431;40.794;43.836;2024-02-14T04:53:12;50.70;;;24.98;;
83495;SDS011;73431;40.794;43.836;2024-02-14T04:55:40;50.45;;;24.30;;
83495;SDS011;73431;40.794;43.836;2024-02-14T04:58:08;59.28;;;24.65;;
83495;SDS011;73431;40.794;43.836;2024-02-14T05:00:36;71.50;;;24.10;;
83495;SDS011;73431;40.794;43.836;2024-02-14T05:03:04;106.30;;;37.17;;
83495;SDS011;73431;40.794;43.836;2024-02-14T05:05:33;125.90;;;38.17;;
83495;SDS011;73431;40.794;43.836;2024-02-14T05:08:04;102.95;;;35.90;;
83495;SDS011;73431;40.794;43.836;2024-02-14T05:13:00;115.28;;;40.33;;
83495;SDS011;73431;40.794;43.836;2024-02-14T05:15:29;105.30;;;36.03;;
83495;SDS011;73431;40.794;43.836;2024-02-14T05:17:58;102.28;;;34.45;;
83495;SDS011;73431;40.794;43.836;2024-02-14T05:20:25;91.78;;;34.60;;
83495;SDS011;73431;40.794;43.836;2024-02-14T05:22:53;91.15;;;34.80;;
83495;SDS011;73431;40.794;43.836;2024-02-14T05:27:54;76.38;;;29.05;;
83495;SDS011;73431;40.794;43.836;2024-02-14T05:30:22;82.25;;;35.35;;
83495;SDS011;73431;40.794;43.836;2024-02-14T05:33:01;88.53;;;35.35;;
83495;SDS011;73431;40.794;43.836;2024-02-14T05:37:57;93.05;;;37.88;;
83495;SDS011;73431;40.794;43.836;2024-02-14T05:40:25;90.93;;;34.90;;
83495;SDS011;73431;40.794;43.836;2024-02-14T05:42:53;82.07;;;36.33;;
83495;SDS011;73431;40.794;43.836;2024-02-14T05:45:23;87.88;;;33.78;;
83495;SDS011;73431;40.794;43.836;2024-02-14T05:47:50;84.95;;;33.95;;
83495;SDS011;73431;40.794;43.836;2024-02-14T05:50:18;84.05;;;34.80;;
83495;SDS011;73431;40.794;43.836;2024-02-14T05:52:46;76.80;;;32.70;;
83495;SDS011;73431;40.794;43.836;2024-02-14T05:55:13;82.78;;;33.58;;
83495;SDS011;73431;40.794;43.836;2024-02-14T05:57:56;91.22;;;33.58;;
83495;SDS011;73431;40.794;43.836;2024-02-14T06:00:24;90.40;;;38.80;;
83495;SDS011;73431;40.794;43.836;2024-02-14T06:02:55;110.53;;;41.92;;
83495;SDS011;73431;40.794;43.836;2024-02-14T06:05:23;111.60;;;40.33;;
83495;SDS011;73431;40.794;43.836;2024-02-14T06:07:51;119.70;;;46.17;;
83495;SDS011;73431;40.794;43.836;2024-02-14T06:10:20;112.97;;;46.05;;
83495;SDS011;73431;40.794;43.836;2024-02-14T06:12:48;103.43;;;39.95;;
83495;SDS011;73431;40.794;43.836;2024-02-14T06:15:16;68.22;;;32.83;;
83495;SDS011;73431;40.794;43.836;2024-02-14T06:17:45;82.72;;;35.53;;
83495;SDS011;73431;40.794;43.836;2024-02-14T06:20:12;87.60;;;35.33;;
83495;SDS011;73431;40.794;43.836;2024-02-14T06:22:40;98.50;;;43.83;;
83495;SDS011;73431;40.794;43.836;2024-02-14T06:25:19;94.45;;;44.80;;
83495;SDS011;73431;40.794;43.836;2024-02-14T06:28:01;94.72;;;41.63;;
83495;SDS011;73431;40.794;43.836;2024-02-14T06:30:29;60.00;;;28.77;;
83495;SDS011;73431;40.794;43.836;2024-02-14T06:32:59;67.57;;;27.00;;
83495;SDS011;73431;40.794;43.836;2024-02-14T06:35:29;52.35;;;23.55;;
83495;SDS011;73431;40.794;43.836;2024-02-14T06:37:58;56.33;;;26.70;;
83495;SDS011;73431;40.794;43.836;2024-02-14T06:40:32;46.45;;;23.25;;
83495;SDS011;73431;40.794;43.836;2024-02-14T06:43:00;46.30;;;18.58;;
83495;SDS011;73431;40.794;43.836;2024-02-14T06:45:31;47.42;;;20.38;;
83495;SDS011;73431;40.794;43.836;2024-02-14T06:48:18;40.40;;;18.65;;
83495;SDS011;73431;40.794;43.836;2024-02-14T06:50:52;34.95;;;17.10;;
83495;SDS011;73431;40.794;43.836;2024-02-14T06:53:20;33.47;;;16.00;;
83495;SDS011;73431;40.794;43.836;2024-02-14T06:55:48;30.77;;;16.95;;
83495;SDS011;73431;40.794;43.836;2024-02-14T06:58:16;37.78;;;17.75;;
83495;SDS011;73431;40.794;43.836;2024-02-14T07:00:45;32.28;;;16.48;;
83495;SDS011;73431;40.794;43.836;2024-02-14T07:03:13;33.80;;;14.82;;
83495;SDS011;73431;40.794;43.836;2024-02-14T07:08:09;31.35;;;14.50;;
83495;SDS011;73431;40.794;43.836;2024-02-14T07:10:38;34.10;;;16.35;;
83495;SDS011;73431;40.794;43.836;2024-02-14T07:13:06;24.10;;;13.65;;
83495;SDS011;73431;40.794;43.836;2024-02-14T07:18:02;28.73;;;14.30;;
83495;SDS011;73431;40.794;43.836;2024-02-14T07:20:30;37.17;;;17.88;;
83495;SDS011;73431;40.794;43.836;2024-02-14T07:22:58;30.25;;;15.50;;
83495;SDS011;73431;40.794;43.836;2024-02-14T07:25:26;32.92;;;15.05;;
83495;SDS011;73431;40.794;43.836;2024-02-14T07:27:56;30.25;;;15.20;;
83495;SDS011;73431;40.794;43.836;2024-02-14T07:30:24;30.98;;;15.48;;
83495;SDS011;73431;40.794;43.836;2024-02-14T07:32:52;28.85;;;14.73;;
83495;SDS011;73431;40.794;43.836;2024-02-14T07:35:20;35.30;;;19.55;;
83495;SDS011;73431;40.794;43.836;2024-02-14T07:37:47;27.27;;;13.23;;
83495;SDS011;73431;40.794;43.836;2024-02-14T07:43:04;30.05;;;14.32;;
83495;SDS011;73431;40.794;43.836;2024-02-14T07:45:34;30.58;;;13.10;;
83495;SDS011;73431;40.794;43.836;2024-02-14T07:48:03;30.83;;;14.75;;
83495;SDS011;73431;40.794;43.836;2024-02-14T07:50:31;32.38;;;15.68;;
83495;SDS011;73431;40.794;43.836;2024-02-14T07:53:01;33.00;;;15.43;;
83495;SDS011;73431;40.794;43.836;2024-02-14T07:55:29;38.75;;;17.05;;
83495;SDS011;73431;40.794;43.836;2024-02-14T07:57:56;33.65;;;15.23;;
83495;SDS011;73431;40.794;43.836;2024-02-14T08:00:24;44.53;;;21.98;;
83495;SDS011;73431;40.794;43.836;2024-02-14T08:02:52;53.13;;;19.98;;
83495;SDS011;73431;40.794;43.836;2024-02-14T08:05:19;27.67;;;13.43;;
83495;SDS011;73431;40.794;43.836;2024-02-14T08:07:47;30.08;;;13.75;;
83495;SDS011;73431;40.794;43.836;2024-02-14T08:10:15;33.17;;;14.35;;
83495;SDS011;73431;40.794;43.836;2024-02-14T08:12:44;30.15;;;14.10;;
83495;SDS011;73431;40.794;43.836;2024-02-14T08:15:12;27.92;;;14.50;;
83495;SDS011;73431;40.794;43.836;2024-02-14T08:17:40;25.20;;;14.65;;
83495;SDS011;73431;40.794;43.836;2024-02-14T08:20:13;30.38;;;14.45;;
83495;SDS011;73431;40.794;43.836;2024-02-14T08:22:55;37.33;;;15.27;;
83495;SDS011;73431;40.794;43.836;2024-02-14T08:25:23;39.55;;;15.68;;
83495;SDS011;73431;40.794;43.836;2024-02-14T08:27:51;43.35;;;17.88;;
83495;SDS011;73431;40.794;43.836;2024-02-14T08:32:47;34.30;;;16.17;;
83495;SDS011;73431;40.794;43.836;2024-02-14T08:37:42;26.30;;;14.05;;
83495;SDS011;73431;40.794;43.836;2024-02-14T08:40:10;34.80;;;15.55;;
83495;SDS011;73431;40.794;43.836;2024-02-14T08:42:39;34.22;;;16.35;;
83495;SDS011;73431;40.794;43.836;2024-02-14T08:45:08;37.63;;;17.77;;
83495;SDS011;73431;40.794;43.836;2024-02-14T08:47:36;35.03;;;16.77;;
83495;SDS011;73431;40.794;43.836;2024-02-14T08:50:05;37.42;;;17.00;;
83495;SDS011;73431;40.794;43.836;2024-02-14T08:52:33;30.25;;;15.55;;
83495;SDS011;73431;40.794;43.836;2024-02-14T08:55:01;35.38;;;17.23;;
83495;SDS011;73431;40.794;43.836;2024-02-14T08:57:29;33.30;;;17.13;;
83495;SDS011;73431;40.794;43.836;2024-02-14T08:59:58;32.47;;;17.60;;
83495;SDS011;73431;40.794;43.836;2024-02-14T09:02:30;36.33;;;17.10;;
83495;SDS011;73431;40.794;43.836;2024-02-14T09:04:58;33.70;;;16.02;;
83495;SDS011;73431;40.794;43.836;2024-02-14T09:09:54;28.25;;;14.68;;
83495;SDS011;73431;40.794;43.836;2024-02-14T09:12:21;33.88;;;14.15;;
83495;SDS011;73431;40.794;43.836;2024-02-14T09:17:17;34.30;;;15.48;;
83495;SDS011;73431;40.794;43.836;2024-02-14T09:19:45;30.15;;;15.10;;
83495;SDS011;73431;40.794;43.836;2024-02-14T09:22:13;33.20;;;16.25;;
83495;SDS011;73431;40.794;43.836;2024-02-14T09:24:45;30.00;;;14.73;;
83495;SDS011;73431;40.794;43.836;2024-02-14T09:27:13;29.45;;;15.13;;
83495;SDS011;73431;40.794;43.836;2024-02-14T09:29:41;32.25;;;16.00;;
83495;SDS011;73431;40.794;43.836;2024-02-14T09:32:10;39.42;;;15.70;;
83495;SDS011;73431;40.794;43.836;2024-02-14T09:34:38;29.50;;;14.05;;
83495;SDS011;73431;40.794;43.836;2024-02-14T09:37:06;31.75;;;15.18;;
83495;SDS011;73431;40.794;43.836;2024-02-14T09:39:34;28.90;;;15.05;;
83495;SDS011;73431;40.794;43.836;2024-02-14T09:42:13;28.08;;;16.23;;
83495;SDS011;73431;40.794;43.836;2024-02-14T09:44:48;29.48;;;15.45;;
83495;SDS011;73431;40.794;43.836;2024-02-14T09:47:20;23.05;;;13.10;;
83495;SDS011;73431;40.794;43.836;2024-02-14T09:49:49;27.05;;;14.85;;
83495;SDS011;73431;40.794;43.836;2024-02-14T09:52:19;22.38;;;12.65;;
83495;SDS011;73431;40.794;43.836;2024-02-14T09:54:51;23.83;;;12.65;;
83495;SDS011;73431;40.794;43.836;2024-02-14T09:57:21;24.80;;;12.95;;
83495;SDS011;73431;40.794;43.836;2024-02-14T09:59:50;28.58;;;15.35;;
83495;SDS011;73431;40.794;43.836;2024-02-14T10:02:21;33.72;;;14.70;;
83495;SDS011;73431;40.794;43.836;2024-02-14T10:04:49;26.25;;;14.27;;
83495;SDS011;73431;40.794;43.836;2024-02-14T10:07:16;26.02;;;13.75;;
83495;SDS011;73431;40.794;43.836;2024-02-14T10:09:45;27.48;;;12.60;;
83495;SDS011;73431;40.794;43.836;2024-02-14T10:14:40;26.08;;;12.50;;
83495;SDS011;73431;40.794;43.836;2024-02-14T10:17:16;28.80;;;14.45;;
83495;SDS011;73431;40.794;43.836;2024-02-14T10:19:55;21.02;;;11.57;;
83495;SDS011;73431;40.794;43.836;2024-02-14T10:22:32;22.83;;;12.30;;
83495;SDS011;73431;40.794;43.836;2024-02-14T10:25:06;25.10;;;12.77;;
83495;SDS011;73431;40.794;43.836;2024-02-14T10:27:40;31.23;;;12.15;;
83495;SDS011;73431;40.794;43.836;2024-02-14T10:30:08;32.75;;;13.93;;
83495;SDS011;73431;40.794;43.836;2024-02-14T10:32:37;22.25;;;12.35;;
83495;SDS011;73431;40.794;43.836;2024-02-14T10:35:08;31.20;;;14.18;;
83495;SDS011;73431;40.794;43.836;2024-02-14T10:37:39;24.38;;;12.15;;
83495;SDS011;73431;40.794;43.836;2024-02-14T10:40:06;28.35;;;12.80;;
83495;SDS011;73431;40.794;43.836;2024-02-14T10:42:36;27.45;;;14.20;;
83495;SDS011;73431;40.794;43.836;2024-02-14T10:45:04;23.65;;;12.80;;
83495;SDS011;73431;40.794;43.836;2024-02-14T10:47:45;26.63;;;12.57;;
83495;SDS011;73431;40.794;43.836;2024-02-14T10:50:16;29.70;;;13.82;;
83495;SDS011;73431;40.794;43.836;2024-02-14T10:52:45;25.65;;;13.98;;
83495;SDS011;73431;40.794;43.836;2024-02-14T10:55:16;23.60;;;11.80;;
83495;SDS011;73431;40.794;43.836;2024-02-14T10:57:45;26.85;;;12.68;;
83495;SDS011;73431;40.794;43.836;2024-02-14T11:00:14;21.05;;;11.20;;
83495;SDS011;73431;40.794;43.836;2024-02-14T11:02:43;24.17;;;11.93;;
83495;SDS011;73431;40.794;43.836;2024-02-14T11:05:12;21.40;;;12.73;;
83495;SDS011;73431;40.794;43.836;2024-02-14T11:07:44;49.40;;;12.77;;
83495;SDS011;73431;40.794;43.836;2024-02-14T11:10:18;22.60;;;12.25;;
83495;SDS011;73431;40.794;43.836;2024-02-14T11:12:47;27.80;;;12.52;;
83495;SDS011;73431;40.794;43.836;2024-02-14T11:15:22;26.75;;;14.30;;
83495;SDS011;73431;40.794;43.836;2024-02-14T11:20:34;31.38;;;13.30;;
83495;SDS011;73431;40.794;43.836;2024-02-14T11:23:04;31.40;;;13.23;;
83495;SDS011;73431;40.794;43.836;2024-02-14T11:25:39;29.58;;;14.60;;
83495;SDS011;73431;40.794;43.836;2024-02-14T11:30:42;28.50;;;13.80;;
83495;SDS011;73431;40.794;43.836;2024-02-14T11:33:18;33.22;;;15.75;;
83495;SDS011;73431;40.794;43.836;2024-02-14T11:35:48;24.63;;;13.45;;
83495;SDS011;73431;40.794;43.836;2024-02-14T11:38:20;26.52;;;13.30;;
83495;SDS011;73431;40.794;43.836;2024-02-14T11:40:49;28.55;;;12.40;;
83495;SDS011;73431;40.794;43.836;2024-02-14T11:43:20;23.55;;;13.95;;
83495;SDS011;73431;40.794;43.836;2024-02-14T11:45:47;24.98;;;12.93;;
83495;SDS011;73431;40.794;43.836;2024-02-14T11:48:20;32.55;;;15.18;;
83495;SDS011;73431;40.794;43.836;2024-02-14T11:50:52;25.27;;;13.27;;
83495;SDS011;73431;40.794;43.836;2024-02-14T11:53:20;27.90;;;13.38;;
83495;SDS011;73431;40.794;43.836;2024-02-14T11:55:48;29.13;;;14.20;;
83495;SDS011;73431;40.794;43.836;2024-02-14T11:58:17;29.30;;;12.45;;
83495;SDS011;73431;40.794;43.836;2024-02-14T12:00:46;23.52;;;12.52;;
83495;SDS011;73431;40.794;43.836;2024-02-14T12:03:21;28.25;;;13.95;;
83495;SDS011;73431;40.794;43.836;2024-02-14T12:05:50;27.52;;;13.65;;
83495;SDS011;73431;40.794;43.836;2024-02-14T12:08:19;26.63;;;14.05;;
83495;SDS011;73431;40.794;43.836;2024-02-14T12:10:48;24.38;;;13.25;;
83495;SDS011;73431;40.794;43.836;2024-02-14T12:13:17;26.55;;;13.05;;
83495;SDS011;73431;40.794;43.836;2024-02-14T12:15:48;26.50;;;13.80;;
83495;SDS011;73431;40.794;43.836;2024-02-14T12:18:19;24.65;;;14.40;;
83495;SDS011;73431;40.794;43.836;2024-02-14T12:21:26;29.92;;;14.93;;
83495;SDS011;73431;40.794;43.836;2024-02-14T12:24:00;27.15;;;12.40;;
83495;SDS011;73431;40.794;43.836;2024-02-14T12:26:28;40.35;;;16.17;;
83495;SDS011;73431;40.794;43.836;2024-02-14T12:28:57;22.65;;;12.45;;
83495;SDS011;73431;40.794;43.836;2024-02-14T12:31:25;32.53;;;16.17;;
83495;SDS011;73431;40.794;43.836;2024-02-14T12:33:52;27.27;;;15.23;;
83495;SDS011;73431;40.794;43.836;2024-02-14T12:36:22;27.25;;;13.25;;
83495;SDS011;73431;40.794;43.836;2024-02-14T12:38:50;33.92;;;16.60;;
83495;SDS011;73431;40.794;43.836;2024-02-14T12:41:20;25.50;;;14.30;;
83495;SDS011;73431;40.794;43.836;2024-02-14T12:43:47;28.92;;;14.00;;
83495;SDS011;73431;40.794;43.836;2024-02-14T12:46:15;31.48;;;14.57;;
83495;SDS011;73431;40.794;43.836;2024-02-14T12:48:43;24.27;;;13.48;;
83495;SDS011;73431;40.794;43.836;2024-02-14T12:51:12;25.75;;;13.48;;
83495;SDS011;73431;40.794;43.836;2024-02-14T12:53:44;38.80;;;15.90;;
83495;SDS011;73431;40.794;43.836;2024-02-14T12:58:39;25.15;;;12.40;;
83495;SDS011;73431;40.794;43.836;2024-02-14T13:01:08;28.17;;;14.32;;
83495;SDS011;73431;40.794;43.836;2024-02-14T13:03:38;24.05;;;13.50;;
83495;SDS011;73431;40.794;43.836;2024-02-14T13:08:34;24.58;;;12.10;;
83495;SDS011;73431;40.794;43.836;2024-02-14T13:11:02;28.35;;;13.45;;
83495;SDS011;73431;40.794;43.836;2024-02-14T13:13:30;35.50;;;13.98;;
83495;SDS011;73431;40.794;43.836;2024-02-14T13:15:57;54.60;;;17.92;;
83495;SDS011;73431;40.794;43.836;2024-02-14T13:20:53;32.45;;;15.10;;
83495;SDS011;73431;40.794;43.836;2024-02-14T13:23:27;30.98;;;14.35;;
83495;SDS011;73431;40.794;43.836;2024-02-14T13:25:55;27.25;;;13.30;;
83495;SDS011;73431;40.794;43.836;2024-02-14T13:28:23;30.52;;;13.18;;
83495;SDS011;73431;40.794;43.836;2024-02-14T13:30:51;29.77;;;15.20;;
83495;SDS011;73431;40.794;43.836;2024-02-14T13:33:22;30.42;;;14.27;;
83495;SDS011;73431;40.794;43.836;2024-02-14T13:35:50;44.03;;;15.50;;
83495;SDS011;73431;40.794;43.836;2024-02-14T13:38:18;39.25;;;16.13;;
83495;SDS011;73431;40.794;43.836;2024-02-14T13:40:46;44.75;;;17.08;;
83495;SDS011;73431;40.794;43.836;2024-02-14T13:43:14;38.63;;;17.38;;
83495;SDS011;73431;40.794;43.836;2024-02-14T13:45:45;40.08;;;19.05;;
83495;SDS011;73431;40.794;43.836;2024-02-14T13:48:15;38.60;;;16.60;;
83495;SDS011;73431;40.794;43.836;2024-02-14T13:50:43;28.15;;;16.05;;
83495;SDS011;73431;40.794;43.836;2024-02-14T13:53:11;37.08;;;17.20;;
83495;SDS011;73431;40.794;43.836;2024-02-14T13:58:07;30.23;;;16.23;;
83495;SDS011;73431;40.794;43.836;2024-02-14T14:00:41;34.85;;;17.88;;
83495;SDS011;73431;40.794;43.836;2024-02-14T14:03:10;36.00;;;17.27;;
83495;SDS011;73431;40.794;43.836;2024-02-14T14:05:39;36.60;;;17.20;;
83495;SDS011;73431;40.794;43.836;2024-02-14T14:08:07;45.13;;;18.35;;
83495;SDS011;73431;40.794;43.836;2024-02-14T14:10:36;39.40;;;18.30;;
83495;SDS011;73431;40.794;43.836;2024-02-14T14:15:31;38.67;;;20.80;;
83495;SDS011;73431;40.794;43.836;2024-02-14T14:18:00;35.58;;;19.17;;
83495;SDS011;73431;40.794;43.836;2024-02-14T14:22:55;38.03;;;16.30;;
83495;SDS011;73431;40.794;43.836;2024-02-14T14:25:23;33.00;;;18.13;;
83495;SDS011;73431;40.794;43.836;2024-02-14T14:27:51;38.05;;;18.65;;
83495;SDS011;73431;40.794;43.836;2024-02-14T14:32:46;46.63;;;19.45;;
83495;SDS011;73431;40.794;43.836;2024-02-14T14:35:14;58.58;;;27.52;;
83495;SDS011;73431;40.794;43.836;2024-02-14T14:37:43;51.10;;;23.98;;
83495;SDS011;73431;40.794;43.836;2024-02-14T14:40:10;58.42;;;25.50;;
83495;SDS011;73431;40.794;43.836;2024-02-14T14:42:38;64.50;;;27.20;;
83495;SDS011;73431;40.794;43.836;2024-02-14T14:45:06;59.30;;;24.88;;
83495;SDS011;73431;40.794;43.836;2024-02-14T14:50:04;70.80;;;33.33;;
83495;SDS011;73431;40.794;43.836;2024-02-14T14:52:33;62.30;;;32.35;;
83495;SDS011;73431;40.794;43.836;2024-02-14T14:55:01;61.38;;;28.63;;
83495;SDS011;73431;40.794;43.836;2024-02-14T14:57:29;58.33;;;28.48;;
83495;SDS011;73431;40.794;43.836;2024-02-14T14:59:57;71.13;;;31.67;;
83495;SDS011;73431;40.794;43.836;2024-02-14T15:02:25;75.68;;;36.33;;
83495;SDS011;73431;40.794;43.836;2024-02-14T15:04:53;62.03;;;29.33;;
83495;SDS011;73431;40.794;43.836;2024-02-14T15:07:21;85.00;;;34.97;;
83495;SDS011;73431;40.794;43.836;2024-02-14T15:09:49;95.75;;;35.00;;
83495;SDS011;73431;40.794;43.836;2024-02-14T15:12:17;83.85;;;35.88;;
83495;SDS011;73431;40.794;43.836;2024-02-14T15:14:45;86.10;;;34.95;;
83495;SDS011;73431;40.794;43.836;2024-02-14T15:17:13;85.90;;;34.95;;
83495;SDS011;73431;40.794;43.836;2024-02-14T15:19:41;81.68;;;33.72;;
83495;SDS011;73431;40.794;43.836;2024-02-14T15:24:37;89.65;;;34.17;;
83495;SDS011;73431;40.794;43.836;2024-02-14T15:27:10;99.50;;;35.58;;
83495;SDS011;73431;40.794;43.836;2024-02-14T15:29:41;103.65;;;36.78;;
83495;SDS011;73431;40.794;43.836;2024-02-14T15:32:30;118.35;;;43.20;;
83495;SDS011;73431;40.794;43.836;2024-02-14T15:35:17;150.30;;;45.40;;
83495;SDS011;73431;40.794;43.836;2024-02-14T15:37:46;128.88;;;45.22;;
83495;SDS011;73431;40.794;43.836;2024-02-14T15:40:16;123.82;;;46.00;;